Nordman, Idaho
Current Conditions -  °F | °C
As of 4:35 PM on Tuesday 25 Nov 2014 (Local Time) from KSZT Reporting Station
Overcast Overcast  
Wind Chill: 36°   Ceiling: 4800
Heat Index: 36°   Visibility: 10mi
Dew Point: 36°   Wind: 3mph
Humidity: 100%   Direction: 230°SW
Pressure: 30.18"   Gusts: NA
Location:  48.63°N, 116.95°W
Report Text: KSZT 260035Z AUTO 23003KT 10SM BKN048 OVC050 02/02 A3018 RMK AO2
Loading
Personal Weather Stations






























Interactive Weather Map New forecast layout! Learn more

10-Day Weather Forecast

Advertisements
Track Severe Weather on mobile